Maersk Rosario — V2BG2 — position and weather

sailwx.info

Track history (hours):
 
Tides and Currents Weather Stations Pressure Air Temp Water Temp Dewpoint Dewpoint Depression Visibility Wind Speed Wind Dir Waves Ship Positions

Maersk Rosario

Last reported at 2016-Sep-20 17:32 UTC. Time now 2016-Sep-24 22:36 UTC.
Position N 28°09' W 015°25'.

Length 161.1 m; beam 25 m; draft 9.5 m.

Type: Cargo ship. MMSI: 304814000.

Date/timePositionNaut miles runAvg speedWind from/ knotsBaromVisibWave heightAir tempDewpointWater temp
2016-Sep-20 17:32N 28°09' W 015°25'0 0.0
2016-Sep-20 14:32N 28°09' W 015°25'0 0.0
2016-Sep-20 13:20N 28°09' W 015°25'0 0.0
2016-Sep-20 10:20N 28°09' W 015°25'8 4.3
2016-Sep-20 08:33N 28°12' W 015°17'1716.9
2016-Sep-20 07:33N 28°24' W 015°03'  
2016-Sep-17 13:21N 35°57' W 005°35'16 0.6
2016-Sep-16 12:14N 36°10' W 005°24'  
2016-Sep-13 16:29N 28°37' W 014°48'43 8.7
2016-Sep-13 11:30N 28°09' W 015°25'0 0.0
2016-Sep-13 09:27N 28°09' W 015°25'0 0.0
2016-Sep-13 07:18N 28°09' W 015°25'0 0.0
2016-Sep-13 06:33N 28°09' W 015°25'9 4.4
2016-Sep-13 04:34N 28°02' W 015°18'  
Track history (hours):
 
Tides and Currents Weather Stations Pressure Air Temp Water Temp Dewpoint Dewpoint Depression Visibility Wind Speed Wind Dir Waves Ship Positions

Maersk Rosario

Last reported at 2016-Sep-20 17:32 UTC. Time now 2016-Sep-24 22:36 UTC.
Position N 28°09' W 015°25'.

Length 161.1 m; beam 25 m; draft 9.5 m.

Type: Cargo ship. MMSI: 304814000.

Date/timePositionNaut miles runAvg speedWind from/ knotsBaromVisibWave heightAir tempDewpointWater temp
2016-Sep-20 17:32N 28°09' W 015°25'0 0.0
2016-Sep-20 14:32N 28°09' W 015°25'0 0.0
2016-Sep-20 13:20N 28°09' W 015°25'0 0.0
2016-Sep-20 10:20N 28°09' W 015°25'8 4.3
2016-Sep-20 08:33N 28°12' W 015°17'1716.9
2016-Sep-20 07:33N 28°24' W 015°03'  
2016-Sep-17 13:21N 35°57' W 005°35'16 0.6
2016-Sep-16 12:14N 36°10' W 005°24'  
2016-Sep-13 16:29N 28°37' W 014°48'43 8.7
2016-Sep-13 11:30N 28°09' W 015°25'0 0.0
2016-Sep-13 09:27N 28°09' W 015°25'0 0.0
2016-Sep-13 07:18N 28°09' W 015°25'0 0.0
2016-Sep-13 06:33N 28°09' W 015°25'9 4.4
2016-Sep-13 04:34N 28°02' W 015°18'  

Dump ship's entire track history